Time;durP1;ratioP1;P1;durP2;ratioP2;P2;SDS_P1;SDS_P2;PMS_P1;PMS_P2;Temp;Humidity;BMP_temperature;BMP_pressure;BME280_temperature;BME280_humidity;BME280_pressure;Samples;Min_cycle;Max_cycle;Signal;HPM_P1;HPM_P2
2022/03/16 00:01:51;;;;;;;37.83;22.37;;;;;;;6.20;64.91;100700.22;5112600;28;20191;-71
2022/03/16 00:04:18;;;;;;;36.87;22.73;;;;;;;6.27;64.80;100690.78;5112250;28;20232;-71
2022/03/16 00:06:46;;;;;;;36.17;22.53;;;;;;;6.32;64.61;100688.56;5112299;28;20187;-72
2022/03/16 00:09:13;;;;;;;33.40;21.53;;;;;;;6.24;64.57;100696.34;5112486;28;20195;-71
2022/03/16 00:11:39;;;;;;;36.17;22.50;;;;;;;6.16;64.91;100699.66;5112165;28;20256;-72
2022/03/16 00:14:06;;;;;;;34.50;22.10;;;;;;;6.10;64.87;100694.09;5112092;28;20735;-71
2022/03/16 00:16:33;;;;;;;32.87;22.17;;;;;;;6.03;65.14;100700.91;5112351;28;20264;-73
2022/03/16 00:19:00;;;;;;;38.27;21.97;;;;;;;5.94;65.84;100699.94;5112444;28;20190;-73
2022/03/16 00:21:26;;;;;;;35.57;22.03;;;;;;;5.92;66.39;100693.13;5115679;28;20644;-72
2022/03/16 00:23:54;;;;;;;40.47;24.27;;;;;;;5.93;65.70;100686.88;5117243;28;20263;-72
2022/03/16 00:26:21;;;;;;;43.90;25.10;;;;;;;5.87;65.75;100687.44;5116377;28;20267;-72
2022/03/16 00:28:48;;;;;;;44.67;26.03;;;;;;;5.89;65.69;100690.75;5116313;28;20190;-72
2022/03/16 00:31:14;;;;;;;41.13;26.47;;;;;;;5.77;65.39;100682.94;5116562;28;20198;-71
2022/03/16 00:33:41;;;;;;;46.20;27.80;;;;;;;5.78;65.89;100674.06;5115909;28;20248;-72
2022/03/16 00:36:08;;;;;;;44.57;26.83;;;;;;;5.77;66.10;100675.03;5116103;28;20218;-71
2022/03/16 00:38:34;;;;;;;50.73;27.67;;;;;;;5.67;66.16;100679.47;5081845;28;20255;-72
2022/03/16 00:41:03;;;;;;;44.77;27.07;;;;;;;5.58;66.45;100669.75;5074454;28;20202;-71
2022/03/16 00:43:29;;;;;;;56.63;27.33;;;;;;;5.56;66.88;100657.66;5075335;28;20215;-72
2022/03/16 00:45:56;;;;;;;43.37;26.63;;;;;;;5.49;67.23;100643.38;5074715;28;20258;-72
2022/03/16 00:48:23;;;;;;;46.27;27.43;;;;;;;5.68;67.36;100656.59;5074899;28;20188;-72
2022/03/16 00:50:49;;;;;;;42.27;26.53;;;;;;;5.77;67.09;100661.84;5075093;28;20570;-71
2022/03/16 00:53:16;;;;;;;41.03;25.47;;;;;;;5.83;67.48;100649.13;5075735;28;20197;-71
2022/03/16 00:55:43;;;;;;;38.93;24.80;;;;;;;5.86;67.06;100648.84;5074528;28;20250;-72
2022/03/16 00:58:11;;;;;;;42.70;24.03;;;;;;;5.91;67.83;100654.56;5074805;28;20229;-72
2022/03/16 01:00:37;;;;;;;36.10;22.63;;;;;;;5.81;67.59;100651.91;5074884;28;20262;-72
2022/03/16 01:03:04;;;;;;;40.17;24.70;;;;;;;5.88;67.36;100650.38;5074877;28;20243;-72
2022/03/16 01:05:31;;;;;;;40.10;24.47;;;;;;;5.96;66.76;100650.50;5074534;28;20281;-72
2022/03/16 01:07:57;;;;;;;37.50;24.83;;;;;;;6.04;67.24;100642.75;5074759;28;20200;-72
2022/03/16 01:10:24;;;;;;;46.33;24.80;;;;;;;6.09;66.97;100647.59;5075146;28;20251;-72
2022/03/16 01:12:53;;;;;;;37.93;23.47;;;;;;;6.09;66.99;100650.25;5075668;28;20262;-72
2022/03/16 01:15:23;;;;;;;40.37;23.60;;;;;;;6.09;66.68;100647.59;5074829;28;20229;-72
2022/03/16 01:17:50;;;;;;;36.57;22.10;;;;;;;6.10;66.56;100646.63;5074408;28;20705;-72
2022/03/16 01:20:17;;;;;;;40.80;22.80;;;;;;;6.10;66.70;100641.34;5074358;28;20206;-72
2022/03/16 01:22:43;;;;;;;37.77;22.43;;;;;;;6.15;66.41;100644.41;5074399;28;20226;-72
2022/03/16 01:25:10;;;;;;;30.57;21.17;;;;;;;6.12;66.71;100640.25;5075163;28;20259;-72
2022/03/16 01:27:37;;;;;;;37.13;21.77;;;;;;;5.94;66.74;100634.00;5075108;28;20260;-72
2022/03/16 01:30:05;;;;;;;39.73;22.60;;;;;;;5.96;67.23;100629.41;5074584;28;20326;-72
2022/03/16 01:32:33;;;;;;;35.13;23.17;;;;;;;5.89;67.24;100619.56;5073477;28;20190;-72
2022/03/16 01:34:59;;;;;;;40.67;23.23;;;;;;;5.83;67.52;100622.78;5075245;28;20192;-72
2022/03/16 01:37:26;;;;;;;42.70;24.30;;;;;;;5.64;67.93;100621.75;5075106;28;20227;-73
2022/03/16 01:39:53;;;;;;;34.63;21.90;;;;;;;5.60;68.40;100609.00;5074364;28;20626;-73
2022/03/16 01:42:20;;;;;;;36.60;23.53;;;;;;;5.58;68.52;100598.59;5074294;28;20388;-72
2022/03/16 01:44:49;;;;;;;34.93;22.70;;;;;;;5.53;68.60;100602.59;5073923;28;20199;-73
2022/03/16 01:47:17;;;;;;;41.73;22.83;;;;;;;5.40;68.89;100600.22;5073896;28;20208;-72
2022/03/16 01:49:46;;;;;;;39.17;22.70;;;;;;;5.44;69.65;100588.44;5073859;28;20196;-72
2022/03/16 01:52:16;;;;;;;38.07;22.03;;;;;;;5.48;70.00;100560.84;5074092;28;20192;-72
2022/03/16 01:54:43;;;;;;;35.77;21.93;;;;;;;5.53;68.91;100574.47;5074610;28;20242;-72
2022/03/16 01:57:11;;;;;;;38.90;23.77;;;;;;;5.52;69.26;100578.03;5073691;28;20251;-72
2022/03/16 01:59:38;;;;;;;34.93;22.97;;;;;;;5.40;69.49;100552.78;5073621;28;20236;-71
2022/03/16 02:02:05;;;;;;;35.47;23.03;;;;;;;5.48;69.98;100544.22;5073911;28;20192;-71
2022/03/16 02:04:32;;;;;;;42.03;23.83;;;;;;;5.50;70.00;100535.19;5074320;28;20219;-71
2022/03/16 02:07:01;;;;;;;42.37;24.07;;;;;;;5.45;70.65;100526.03;5073502;28;20230;-71
2022/03/16 02:09:27;;;;;;;44.07;26.83;;;;;;;5.39;69.44;100526.56;5073421;28;20250;-71
2022/03/16 02:11:54;;;;;;;54.50;27.73;;;;;;;5.44;70.32;100537.56;5073710;28;20192;-71
2022/03/16 02:14:21;;;;;;;49.57;27.67;;;;;;;5.49;69.84;100525.63;5073316;28;20196;-71
2022/03/16 02:16:48;;;;;;;46.37;25.90;;;;;;;5.56;69.42;100525.91;5073866;28;20224;-72
2022/03/16 02:19:15;;;;;;;47.10;27.23;;;;;;;5.62;69.26;100520.06;5073240;28;20196;-71
2022/03/16 02:21:46;;;;;;;48.20;27.27;;;;;;;5.71;69.06;100520.06;5073763;28;20192;-72
2022/03/16 02:24:14;;;;;;;66.07;26.40;;;;;;;5.73;68.49;100539.19;5073203;28;20189;-71
2022/03/16 02:26:41;;;;;;;50.83;26.63;;;;;;;5.76;68.29;100536.28;5073677;28;20197;-71
2022/03/16 02:29:07;;;;;;;50.63;28.73;;;;;;;5.81;67.93;100529.78;5073035;28;20196;-72
2022/03/16 02:31:34;;;;;;;51.87;26.77;;;;;;;5.86;67.87;100522.28;5073316;28;20192;-72
2022/03/16 02:34:01;;;;;;;53.40;26.70;;;;;;;5.80;67.39;100523.66;5072928;28;20744;-71
2022/03/16 02:36:28;;;;;;;44.07;25.33;;;;;;;5.75;68.02;100532.00;5073099;28;20226;-71
2022/03/16 02:38:54;;;;;;;47.27;27.07;;;;;;;5.79;68.09;100529.91;5072864;28;20249;-71
2022/03/16 02:41:22;;;;;;;49.63;27.53;;;;;;;5.84;68.51;100526.88;5072783;28;20254;-72
2022/03/16 02:43:49;;;;;;;49.57;27.20;;;;;;;5.87;68.33;100519.53;5072356;28;20188;-71
2022/03/16 02:46:17;;;;;;;49.90;27.33;;;;;;;5.92;67.94;100522.56;5072711;28;20688;-71
2022/03/16 02:48:44;;;;;;;53.57;27.47;;;;;;;5.93;67.50;100512.84;5072673;28;20193;-71
2022/03/16 02:51:11;;;;;;;52.73;27.53;;;;;;;5.95;67.99;100524.09;5072961;28;20230;-71
2022/03/16 02:53:37;;;;;;;46.90;27.30;;;;;;;5.92;67.87;100522.56;5072565;28;20199;-72
2022/03/16 02:56:04;;;;;;;55.33;27.73;;;;;;;5.93;67.36;100528.66;5073655;28;20192;-71
2022/03/16 02:58:32;;;;;;;42.23;26.60;;;;;;;5.84;68.35;100537.44;5072390;28;20621;-71
2022/03/16 03:00:59;;;;;;;44.63;27.77;;;;;;;5.71;67.95;100520.06;5072388;28;20247;-72
2022/03/16 03:03:26;;;;;;;48.00;28.37;;;;;;;5.65;68.56;100510.06;5073725;28;20199;-72
2022/03/16 03:05:53;;;;;;;45.73;28.50;;;;;;;5.64;68.73;100511.03;5073293;28;20293;-72
2022/03/16 03:08:19;;;;;;;44.50;27.03;;;;;;;5.59;69.29;100520.34;5073217;28;20262;-72
2022/03/16 03:10:48;;;;;;;46.83;28.77;;;;;;;5.58;69.15;100513.41;5072289;28;20245;-72
2022/03/16 03:13:15;;;;;;;49.17;28.47;;;;;;;5.64;68.36;100513.69;5072261;28;20193;-72
2022/03/16 03:15:43;;;;;;;61.30;30.83;;;;;;;5.56;68.85;100515.38;5073058;28;20191;-72
2022/03/16 03:18:09;;;;;;;56.33;31.57;;;;;;;5.48;68.92;100508.13;5072165;28;20227;-72
2022/03/16 03:20:36;;;;;;;49.33;28.97;;;;;;;5.39;69.61;100519.50;5072520;28;20193;-72
2022/03/16 03:23:03;;;;;;;62.43;29.33;;;;;;;5.39;70.03;100502.88;5072459;28;20250;-72
2022/03/16 03:25:29;;;;;;;52.13;28.93;;;;;;;5.32;69.52;100501.78;5072415;28;20261;-72
2022/03/16 03:27:56;;;;;;;49.40;28.80;;;;;;;5.34;69.82;100513.00;5072090;28;20193;-72
2022/03/16 03:30:23;;;;;;;58.87;29.37;;;;;;;5.29;70.33;100497.63;5072382;28;20255;-72
2022/03/16 03:32:51;;;;;;;61.67;29.53;;;;;;;5.35;69.83;100490.94;5072009;28;20197;-72
2022/03/16 03:35:18;;;;;;;52.90;27.73;;;;;;;5.43;70.15;100501.63;5072304;28;20197;-72
2022/03/16 03:37:45;;;;;;;50.27;27.97;;;;;;;5.35;69.94;100497.06;5073054;28;20223;-72
2022/03/16 03:40:12;;;;;;;52.93;28.53;;;;;;;5.35;70.36;100481.25;5071958;28;20250;-72
2022/03/16 03:42:38;;;;;;;71.57;31.40;;;;;;;5.32;70.03;100481.50;5071911;28;20736;-72
2022/03/16 03:45:06;;;;;;;57.60;30.97;;;;;;;5.42;70.49;100471.81;5072202;28;20201;-72
2022/03/16 03:47:33;;;;;;;53.67;29.37;;;;;;;5.44;70.31;100451.44;5072465;28;20254;-72
2022/03/16 03:50:02;;;;;;;59.13;29.63;;;;;;;5.55;70.10;100464.47;5072180;28;20188;-72
2022/03/16 03:52:29;;;;;;;60.20;30.93;;;;;;;5.62;70.54;100472.63;5072695;28;20192;-72
2022/03/16 03:54:55;;;;;;;60.07;28.30;;;;;;;5.67;70.10;100465.13;5073493;28;20241;-71
2022/03/16 03:57:22;;;;;;;56.53;29.07;;;;;;;5.73;69.88;100464.59;5075932;28;20277;-71
2022/03/16 03:59:49;;;;;;;55.23;30.17;;;;;;;5.67;69.64;100473.03;5076223;28;20325;-71
2022/03/16 04:02:15;;;;;;;62.13;30.93;;;;;;;5.68;69.62;100467.63;5075848;28;20733;-71
2022/03/16 04:04:42;;;;;;;59.13;29.37;;;;;;;5.70;69.64;100465.69;5075875;28;20292;-71
2022/03/16 04:07:10;;;;;;;53.43;30.47;;;;;;;5.75;69.56;100468.72;5076090;28;20193;-71
2022/03/16 04:09:37;;;;;;;68.10;29.93;;;;;;;5.79;69.83;100459.56;5076306;28;20199;-71
2022/03/16 04:12:04;;;;;;;54.87;30.60;;;;;;;5.83;69.56;100457.50;5076125;28;20195;-71
2022/03/16 04:14:31;;;;;;;62.33;30.43;;;;;;;5.84;69.23;100466.25;5075928;28;20188;-72
2022/03/16 04:16:58;;;;;;;54.97;29.40;;;;;;;5.79;69.31;100459.56;5075485;28;20225;-72
2022/03/16 04:19:24;;;;;;;49.27;28.70;;;;;;;5.74;69.88;100461.81;5076384;28;20199;-72
2022/03/16 04:21:51;;;;;;;57.37;29.33;;;;;;;5.78;69.07;100447.38;5076090;28;20204;-72
2022/03/16 04:24:19;;;;;;;50.90;28.73;;;;;;;5.85;69.40;100441.53;5075455;28;20263;-72
2022/03/16 04:26:46;;;;;;;66.97;29.03;;;;;;;5.89;69.13;100448.19;5076187;28;20192;-72
2022/03/16 04:29:12;;;;;;;64.00;28.33;;;;;;;5.93;68.70;100454.84;5075538;28;20188;-72
2022/03/16 04:31:39;;;;;;;46.90;26.57;;;;;;;5.95;68.71;100458.19;5075555;28;20199;-72
2022/03/16 04:34:06;;;;;;;60.13;27.90;;;;;;;5.95;69.13;100463.47;5075525;28;20200;-72
2022/03/16 04:36:33;;;;;;;52.63;26.47;;;;;;;5.98;68.88;100473.69;5075473;28;20258;-72
2022/03/16 04:38:59;;;;;;;52.83;27.03;;;;;;;5.98;68.94;100476.34;5075278;28;20228;-72
2022/03/16 04:41:27;;;;;;;54.57;26.17;;;;;;;6.03;68.62;100466.19;5075347;28;20194;-72
2022/03/16 04:43:54;;;;;;;47.93;27.17;;;;;;;6.08;68.22;100463.97;5074963;28;20242;-72
2022/03/16 04:46:24;;;;;;;49.93;26.00;;;;;;;6.06;67.82;100471.19;5075040;28;20244;-73
2022/03/16 04:48:50;;;;;;;55.40;27.60;;;;;;;6.10;68.08;100469.91;5074959;28;20626;-72
2022/03/16 04:51:17;;;;;;;50.47;27.50;;;;;;;6.10;68.56;100467.28;5075249;28;20251;-72
2022/03/16 04:53:44;;;;;;;45.50;27.30;;;;;;;6.05;67.95;100462.47;5075084;28;20255;-72
2022/03/16 04:56:12;;;;;;;48.47;26.97;;;;;;;6.04;68.76;100446.78;5075186;28;20187;-72
2022/03/16 04:58:40;;;;;;;49.67;28.67;;;;;;;6.01;68.05;100452.31;5075783;28;20730;-72
2022/03/16 05:01:07;;;;;;;55.97;28.80;;;;;;;5.99;68.92;100448.97;5075075;28;20238;-72
2022/03/16 05:03:34;;;;;;;49.37;30.07;;;;;;;5.89;69.30;100456.09;5074520;28;20571;-72
2022/03/16 05:06:00;;;;;;;62.30;29.00;;;;;;;5.93;69.39;100444.31;5075678;28;20231;-72
2022/03/16 05:08:27;;;;;;;65.93;29.33;;;;;;;5.98;68.65;100436.78;5074793;28;20201;-72
2022/03/16 05:10:54;;;;;;;76.60;32.17;;;;;;;5.94;68.71;100449.44;5074423;28;20577;-70
2022/03/16 05:13:21;;;;;;;56.20;30.53;;;;;;;5.92;69.08;100437.38;5074741;28;20252;-71
2022/03/16 05:15:49;;;;;;;68.77;31.97;;;;;;;5.93;69.33;100444.31;5074378;28;20665;-70
2022/03/16 05:18:15;;;;;;;63.20;30.57;;;;;;;5.96;68.75;100444.03;5074507;28;20219;-70
2022/03/16 05:20:42;;;;;;;60.03;32.70;;;;;;;5.87;69.37;100439.63;5074618;28;20195;-70
2022/03/16 05:23:09;;;;;;;67.63;33.00;;;;;;;5.77;69.54;100445.69;5074233;28;20197;-70
2022/03/16 05:25:36;;;;;;;64.33;31.43;;;;;;;5.75;69.28;100439.75;5074191;28;20196;-70
2022/03/16 05:28:03;;;;;;;72.80;29.57;;;;;;;5.75;69.08;100439.75;5074371;28;20286;-70
2022/03/16 05:30:30;;;;;;;62.00;31.03;;;;;;;5.69;68.84;100445.56;5074018;28;20195;-70
2022/03/16 05:33:00;;;;;;;69.20;30.40;;;;;;;5.61;69.42;100419.09;5074328;28;20200;-70
2022/03/16 05:35:28;;;;;;;64.03;31.50;;;;;;;5.67;69.66;100420.31;5074012;28;20192;-70
2022/03/16 05:37:55;;;;;;;65.93;31.53;;;;;;;5.76;69.68;100417.66;5074116;28;20223;-72
2022/03/16 05:40:22;;;;;;;55.93;29.50;;;;;;;5.84;69.13;100418.81;5074244;28;20323;-70
2022/03/16 05:42:48;;;;;;;74.77;34.67;;;;;;;5.79;69.01;100409.47;5074254;28;20257;-72
2022/03/16 05:45:15;;;;;;;71.23;33.00;;;;;;;5.77;68.86;100403.50;5073832;28;20761;-71
2022/03/16 05:47:42;;;;;;;71.70;34.03;;;;;;;5.71;68.87;100398.81;5073070;28;20698;-71
2022/03/16 05:50:10;;;;;;;65.73;34.30;;;;;;;5.64;68.93;100396.91;5073568;28;20253;-72
2022/03/16 05:52:37;;;;;;;66.33;33.20;;;;;;;5.65;69.46;100394.09;5072229;28;20729;-71
2022/03/16 05:55:07;;;;;;;68.70;33.10;;;;;;;5.77;69.56;100392.97;5074242;28;20215;-72
2022/03/16 05:57:33;;;;;;;96.60;42.93;;;;;;;5.92;68.87;100397.81;5074323;28;20310;-74
2022/03/16 06:00:00;;;;;;;78.23;38.10;;;;;;;6.02;68.78;100391.53;5073672;28;20229;-73
2022/03/16 06:02:27;;;;;;;75.60;34.97;;;;;;;6.13;68.71;100398.44;5073650;28;20617;-71
2022/03/16 06:04:54;;;;;;;65.13;32.57;;;;;;;6.16;67.89;100390.22;5073580;28;20300;-70
2022/03/16 06:07:22;;;;;;;94.43;38.73;;;;;;;6.17;67.74;100387.44;5073627;28;20534;-73
2022/03/16 06:09:49;;;;;;;105.67;41.30;;;;;;;6.25;67.98;100403.34;5073487;28;20203;-70
2022/03/16 06:12:15;;;;;;;78.50;36.67;;;;;;;6.36;67.27;100394.44;5073219;28;20663;-70
2022/03/16 06:14:42;;;;;;;77.50;34.77;;;;;;;6.40;67.52;100395.81;5074243;28;20192;-71
2022/03/16 06:17:09;;;;;;;74.17;33.00;;;;;;;6.48;67.04;100383.50;5072910;28;20283;-71
2022/03/16 06:19:36;;;;;;;53.13;29.37;;;;;;;6.59;65.42;100400.94;5073024;28;20268;-70
2022/03/16 06:22:03;;;;;;;57.20;29.77;;;;;;;6.69;65.06;100401.72;5073871;28;20613;-69
2022/03/16 06:24:31;;;;;;;63.57;29.67;;;;;;;6.73;64.57;100392.53;5079299;28;20196;-70
2022/03/16 06:26:57;;;;;;;64.50;30.07;;;;;;;6.75;64.88;100401.13;5086127;28;20786;-68
2022/03/16 06:29:24;;;;;;;46.77;27.07;;;;;;;6.82;63.95;100396.91;5083495;28;21525;-70
2022/03/16 06:31:51;;;;;;;58.20;28.03;;;;;;;6.82;64.35;100395.09;5075699;28;20251;-70
2022/03/16 06:34:18;;;;;;;68.93;31.13;;;;;;;6.87;64.18;100386.72;5076726;28;20244;-70
2022/03/16 06:36:45;;;;;;;83.30;37.60;;;;;;;6.88;63.91;100380.44;5085889;28;20674;-71
2022/03/16 06:39:11;;;;;;;96.13;37.57;;;;;;;6.90;64.54;100378.50;5093388;28;20276;-68
2022/03/16 06:41:40;;;;;;;85.83;35.90;;;;;;;6.95;63.71;100381.50;5080093;28;20248;-70
2022/03/16 06:44:06;;;;;;;82.30;36.73;;;;;;;6.96;63.58;100384.00;5071561;28;20186;-70
2022/03/16 06:46:33;;;;;;;81.03;37.87;;;;;;;6.80;64.24;100398.84;5072612;28;20199;-69
2022/03/16 06:49:00;;;;;;;71.23;36.83;;;;;;;6.82;63.95;100391.63;5075392;28;20199;-70
2022/03/16 06:51:27;;;;;;;75.03;37.73;;;;;;;6.74;64.48;100383.63;5093764;28;20199;-70
2022/03/16 06:53:53;;;;;;;99.23;39.97;;;;;;;6.68;65.08;100378.94;5092849;28;20660;-69
2022/03/16 06:56:20;;;;;;;108.03;37.87;;;;;;;6.66;65.46;100379.06;5093045;28;20252;-69
2022/03/16 06:58:48;;;;;;;71.97;38.53;;;;;;;6.72;65.30;100365.28;5092936;28;20634;-68
2022/03/16 07:01:15;;;;;;;74.00;37.93;;;;;;;6.82;65.07;100371.31;5086137;28;20200;-68
2022/03/16 07:03:43;;;;;;;72.00;36.03;;;;;;;6.93;64.66;100368.47;5072260;28;20686;-68
2022/03/16 07:06:10;;;;;;;82.63;34.67;;;;;;;7.04;64.24;100370.03;5075980;28;20256;-68
2022/03/16 07:08:37;;;;;;;82.37;38.17;;;;;;;7.03;63.88;100376.31;5093015;28;20251;-69
2022/03/16 07:11:04;;;;;;;71.03;36.07;;;;;;;6.95;64.08;100370.97;5092729;28;20183;-69
2022/03/16 07:13:30;;;;;;;85.37;37.93;;;;;;;6.82;64.60;100365.22;5091648;28;20197;-69
2022/03/16 07:15:58;;;;;;;81.90;39.20;;;;;;;6.65;65.47;100371.34;5092738;28;20187;-68
2022/03/16 07:18:25;;;;;;;84.17;37.63;;;;;;;6.53;65.74;100369.88;5092673;28;20254;-69
2022/03/16 07:20:52;;;;;;;74.03;37.47;;;;;;;6.60;66.48;100365.66;5092298;28;20730;-69
2022/03/16 07:23:19;;;;;;;73.27;37.30;;;;;;;6.68;65.33;100369.22;5092235;28;20576;-69
2022/03/16 07:25:48;;;;;;;69.07;37.43;;;;;;;6.77;65.38;100356.94;5092265;28;20240;-69
2022/03/16 07:28:15;;;;;;;70.70;37.17;;;;;;;6.90;65.00;100357.38;5092307;28;20191;-69
2022/03/16 07:30:42;;;;;;;91.30;37.87;;;;;;;7.00;64.41;100360.75;5092438;28;20195;-70
2022/03/16 07:33:12;;;;;;;91.83;36.03;;;;;;;7.12;64.37;100359.53;5091947;28;20656;-69
2022/03/16 07:35:40;;;;;;;88.67;35.53;;;;;;;7.22;64.37;100362.94;5092026;28;20198;-70
2022/03/16 07:38:08;;;;;;;71.43;34.20;;;;;;;7.28;63.37;100357.88;5091963;28;20219;-69
2022/03/16 07:40:36;;;;;;;79.23;35.20;;;;;;;7.38;63.44;100360.38;5086531;28;20249;-70
2022/03/16 07:43:03;;;;;;;94.23;36.27;;;;;;;7.49;62.76;100354.88;5072239;28;20231;-69
2022/03/16 07:45:30;;;;;;;81.77;35.90;;;;;;;7.52;62.97;100358.00;5072090;28;20195;-70
2022/03/16 07:47:57;;;;;;;89.83;44.03;;;;;;;7.58;62.85;100354.75;5072034;28;20196;-69
2022/03/16 07:50:25;;;;;;;65.37;34.97;;;;;;;7.68;62.16;100355.47;5071544;28;20195;-69
2022/03/16 07:52:53;;;;;;;65.87;32.10;;;;;;;7.74;61.91;100346.94;5072403;28;20510;-69
2022/03/16 07:55:20;;;;;;;56.60;33.30;;;;;;;7.79;61.74;100352.56;5072061;28;20283;-69
2022/03/16 07:57:46;;;;;;;65.63;32.87;;;;;;;7.85;61.38;100359.88;5071905;28;20189;-69
2022/03/16 08:00:15;;;;;;;68.00;33.43;;;;;;;7.89;60.56;100360.41;5072011;28;20192;-69
2022/03/16 08:02:43;;;;;;;62.57;33.53;;;;;;;7.70;60.25;100334.16;5071504;28;20252;-69
2022/03/16 08:05:11;;;;;;;60.67;32.13;;;;;;;7.86;60.99;100347.47;5071533;28;20239;-69
2022/03/16 08:07:39;;;;;;;76.37;32.73;;;;;;;7.84;61.37;100354.75;5098744;28;20210;-69
2022/03/16 08:10:06;;;;;;;78.17;36.53;;;;;;;7.87;61.79;100359.69;5112370;28;20248;-69
2022/03/16 08:12:33;;;;;;;67.33;34.80;;;;;;;7.99;61.64;100353.16;5112113;28;20191;-69
2022/03/16 08:15:00;;;;;;;116.80;56.33;;;;;;;8.08;61.22;100352.22;5111919;28;20247;-69
2022/03/16 08:17:27;;;;;;;78.03;45.30;;;;;;;8.11;61.94;100351.88;5112341;28;20190;-69
2022/03/16 08:19:54;;;;;;;69.33;34.17;;;;;;;8.16;60.48;100354.88;5112300;28;20214;-69
2022/03/16 08:22:29;;;;;;;65.37;34.13;;;;;;;8.27;61.43;100359.91;5112306;28;20191;-69
2022/03/16 08:24:59;;;;;;;82.53;34.47;;;;;;;8.39;61.09;100356.84;5111998;28;20201;-69
2022/03/16 08:27:26;;;;;;;65.67;33.27;;;;;;;8.51;60.96;100354.69;5112270;28;20191;-68
2022/03/16 08:29:53;;;;;;;56.40;29.87;;;;;;;8.63;59.16;100350.75;5078217;28;20671;-69
2022/03/16 08:32:20;;;;;;;54.30;29.50;;;;;;;8.47;58.86;100351.56;5087035;28;20667;-69
2022/03/16 08:34:48;;;;;;;53.73;28.07;;;;;;;8.58;59.80;100350.44;5070923;28;20241;-69
2022/03/16 08:37:14;;;;;;;59.57;30.30;;;;;;;8.71;58.73;100340.19;5081143;28;20248;-69
2022/03/16 08:39:42;;;;;;;55.47;30.53;;;;;;;8.90;58.73;100340.69;5091418;28;20710;-69
2022/03/16 08:42:12;;;;;;;58.93;29.40;;;;;;;8.98;56.71;100342.50;5075467;28;20188;-69
2022/03/16 08:44:39;;;;;;;50.27;27.83;;;;;;;9.05;57.37;100352.31;5075412;28;20196;-69
2022/03/16 08:47:06;;;;;;;42.57;26.17;;;;;;;9.17;56.18;100348.31;5095467;28;20199;-69
2022/03/16 08:49:33;;;;;;;49.93;26.17;;;;;;;9.33;55.72;100339.53;5095399;28;20191;-68
2022/03/16 08:52:00;;;;;;;48.80;25.73;;;;;;;9.51;54.99;100341.00;5095418;28;20244;-68
2022/03/16 08:54:27;;;;;;;40.47;24.27;;;;;;;9.61;53.52;100340.81;5095382;28;20252;-69
2022/03/16 08:56:54;;;;;;;46.60;23.83;;;;;;;9.71;53.68;100346.75;5094805;28;20654;-69
2022/03/16 08:59:23;;;;;;;41.27;25.03;;;;;;;9.78;53.05;100337.97;5095168;28;20223;-69
2022/03/16 09:01:50;;;;;;;41.37;23.97;;;;;;;9.84;52.38;100336.41;5093457;28;20715;-69
2022/03/16 09:04:17;;;;;;;40.50;23.53;;;;;;;9.79;52.28;100336.13;5091827;28;20215;-70
2022/03/16 09:06:44;;;;;;;46.33;24.97;;;;;;;9.73;53.34;100334.16;5085934;28;20188;-69
2022/03/16 09:09:11;;;;;;;48.33;27.33;;;;;;;9.73;52.74;100328.84;5074735;28;20257;-69
2022/03/16 09:11:38;;;;;;;50.73;25.00;;;;;;;9.63;53.11;100339.66;5075267;28;20583;-69
2022/03/16 09:14:06;;;;;;;49.33;27.37;;;;;;;9.62;53.36;100339.81;5074766;28;20217;-69
2022/03/16 09:16:34;;;;;;;49.37;24.40;;;;;;;9.53;54.07;100343.47;5074247;28;20204;-70
2022/03/16 09:19:01;;;;;;;38.03;24.47;;;;;;;9.62;53.39;100345.97;5093646;28;20268;-70
2022/03/16 09:21:28;;;;;;;45.60;23.10;;;;;;;9.72;52.74;100343.13;5093583;28;20198;-69
2022/03/16 09:23:55;;;;;;;33.87;22.77;;;;;;;9.85;51.99;100343.41;5093767;28;20195;-68
2022/03/16 09:26:22;;;;;;;45.37;24.23;;;;;;;10.07;50.84;100337.38;5094223;28;20192;-69
2022/03/16 09:28:49;;;;;;;36.27;23.23;;;;;;;10.24;50.68;100338.97;5094486;28;20274;-70
2022/03/16 09:31:15;;;;;;;46.80;25.07;;;;;;;10.37;49.90;100321.47;5094311;28;20803;-69
2022/03/16 09:33:44;;;;;;;37.37;24.27;;;;;;;10.41;48.97;100328.09;5090384;28;20199;-69
2022/03/16 09:36:10;;;;;;;58.53;24.93;;;;;;;10.41;49.87;100324.59;5082247;28;20250;-68
2022/03/16 09:38:38;;;;;;;43.03;23.90;;;;;;;10.44;49.99;100324.25;5073960;28;20713;-69
2022/03/16 09:41:05;;;;;;;44.93;24.33;;;;;;;10.52;49.33;100332.16;5083991;28;20193;-69
2022/03/16 09:43:33;;;;;;;42.00;22.23;;;;;;;10.56;48.88;100323.69;5093294;28;20265;-69
2022/03/16 09:46:09;;;;;;;43.83;22.40;;;;;;;10.64;49.10;100322.81;5093613;28;20518;-68
2022/03/16 09:48:36;;;;;;;41.93;23.40;;;;;;;10.65;48.14;100311.16;5092025;28;20197;-69
2022/03/16 09:51:05;;;;;;;46.70;22.70;;;;;;;10.61;48.26;100316.00;5093293;28;20191;-69
2022/03/16 09:53:33;;;;;;;31.70;20.80;;;;;;;10.64;47.45;100304.19;5093193;28;20245;-69
2022/03/16 09:56:00;;;;;;;31.80;21.03;;;;;;;10.65;46.10;100303.19;5093656;28;20574;-70
2022/03/16 09:58:26;;;;;;;36.13;22.97;;;;;;;10.66;46.66;100296.91;5093548;28;20254;-69
2022/03/16 10:00:54;;;;;;;37.63;21.70;;;;;;;10.70;46.89;100292.84;5094055;28;20253;-69
2022/03/16 10:03:22;;;;;;;33.90;21.50;;;;;;;10.75;46.27;100290.50;5093692;28;20187;-69
2022/03/16 10:05:50;;;;;;;42.10;22.63;;;;;;;10.83;46.55;100287.78;5092962;28;20281;-69
2022/03/16 10:08:28;;;;;;;37.70;22.47;;;;;;;10.93;45.76;100283.06;5102889;28;20199;-73
2022/03/16 10:13:49;;;;;;;42.27;24.80;;;;;;;10.91;46.11;100274.44;5081327;28;20284;-72
2022/03/16 10:16:15;;;;;;;56.17;26.87;;;;;;;10.87;46.18;100273.16;5093624;28;20196;-71
2022/03/16 10:18:46;;;;;;;52.50;24.43;;;;;;;10.75;46.61;100270.06;5093793;28;20200;-71
2022/03/16 10:21:13;;;;;;;38.33;22.37;;;;;;;10.61;46.74;100275.31;5093002;28;20724;-72
2022/03/16 10:23:45;;;;;;;43.33;22.90;;;;;;;10.35;47.54;100265.06;5093292;28;20280;-72
2022/03/16 10:26:16;;;;;;;42.40;25.07;;;;;;;10.22;48.18;100263.97;5093246;28;20274;-72
2022/03/16 10:28:44;;;;;;;49.33;23.73;;;;;;;10.20;48.40;100263.31;5093368;28;20191;-72
2022/03/16 10:31:11;;;;;;;43.83;24.97;;;;;;;10.23;48.52;100260.31;5093016;28;20196;-72
2022/03/16 10:33:45;;;;;;;45.40;25.97;;;;;;;10.18;49.11;100260.03;5093647;28;20195;-74
2022/03/16 10:36:14;;;;;;;70.63;29.00;;;;;;;10.22;49.86;100254.16;5092665;28;20628;-74
2022/03/16 10:38:44;;;;;;;51.30;29.80;;;;;;;10.25;49.32;100255.66;5093041;28;20284;-74
2022/03/16 10:41:13;;;;;;;63.40;30.40;;;;;;;10.33;49.88;100252.94;5087858;28;20249;-74
2022/03/16 10:46:38;;;;;;;56.10;32.00;;;;;;;10.29;50.39;100227.72;5088539;28;20625;-75
2022/03/16 10:49:07;;;;;;;59.97;31.27;;;;;;;10.45;50.98;100241.75;5071275;28;20216;-74
2022/03/16 10:51:34;;;;;;;48.77;29.27;;;;;;;10.57;50.62;100239.50;5070974;28;20193;-75
2022/03/16 10:54:05;;;;;;;52.23;29.73;;;;;;;10.66;49.71;100236.59;5084189;28;20248;-75
2022/03/16 10:56:32;;;;;;;54.10;28.50;;;;;;;10.73;49.41;100226.06;5092178;28;20180;-75
2022/03/16 10:59:00;;;;;;;55.80;29.03;;;;;;;10.71;49.73;100230.75;5092384;28;20203;-74
2022/03/16 11:01:28;;;;;;;56.33;29.87;;;;;;;10.75;49.53;100226.75;5090916;28;20192;-74
2022/03/16 11:04:01;;;;;;;48.57;28.37;;;;;;;10.84;49.23;100225.66;5090110;28;20740;-74
2022/03/16 11:06:28;;;;;;;49.57;26.10;;;;;;;10.93;48.25;100229.88;5088848;28;20206;-73
2022/03/16 11:08:55;;;;;;;53.70;27.63;;;;;;;11.02;47.67;100226.13;5085499;28;20277;-76
2022/03/16 11:14:20;;;;;;;58.17;27.17;;;;;;;11.03;47.07;100225.16;5048245;28;20182;-74
2022/03/16 11:16:48;;;;;;;50.47;26.73;;;;;;;10.98;47.03;100212.41;5081531;28;20195;-74
2022/03/16 11:19:18;;;;;;;43.23;27.07;;;;;;;10.99;47.47;100218.56;5092196;28;20307;-74
2022/03/16 11:21:50;;;;;;;44.20;25.87;;;;;;;11.04;47.13;100210.84;5091949;28;20185;-73
2022/03/16 11:24:21;;;;;;;46.57;25.83;;;;;;;11.09;46.49;100216.44;5092466;28;20230;-73
2022/03/16 11:27:25;;;;;;;41.40;25.37;;;;;;;11.17;48.76;100205.72;5092063;28;20188;-75